Dundee, Texas
Current Conditions -  °F | °C
As of 12:35 AM on Monday 24 Nov 2014 (Local Time) from KCWC Reporting Station
Clear Clear  
Wind Chill:   Ceiling: Unl
Heat Index:   Visibility: 10mi
Dew Point:   Wind: 10mph
Humidity: 62%   Direction: 300°WNW
Pressure: 29.88"   Gusts: NA
Location:  33.6107°N, 98.6955°W
Report Text: KCWC 240635Z AUTO 30009KT 10SM CLR 08/01 A2988 RMK AO2 T00810012
Loading
Personal Weather Stations






























Interactive Weather Map New forecast layout! Learn more

10-Day Weather Forecast

Advertisements
Track Severe Weather on mobile